Time;durP1;ratioP1;P1;durP2;ratioP2;P2;SDS_P1;SDS_P2;PMS_P1;PMS_P2;Temp;Humidity;BMP_temperature;BMP_pressure;BME280_temperature;BME280_humidity;BME280_pressure;Samples;Min_cycle;Max_cycle;Signal;HPM_P1;HPM_P2
2023/10/10 00:02:04;;;;;;;13.55;6.80;;;;;;;15.65;70.00;101122.63;4186867;28;20041;-69
2023/10/10 00:04:07;;;;;;;13.38;7.20;;;;;;;15.64;70.05;101120.88;4186250;28;20041;-69
2023/10/10 00:06:13;;;;;;;12.18;6.80;;;;;;;15.64;69.82;101118.25;4188273;28;20103;-69
2023/10/10 00:08:20;;;;;;;12.13;6.20;;;;;;;15.65;70.04;101113.88;4166334;28;20453;-69
2023/10/10 00:10:27;;;;;;;18.27;7.35;;;;;;;15.63;69.71;101116.50;4186252;28;20045;-69
2023/10/10 00:12:30;;;;;;;15.18;7.65;;;;;;;15.57;69.97;101119.09;4187423;28;20391;-69
2023/10/10 00:14:33;;;;;;;14.23;6.80;;;;;;;15.58;70.07;101118.25;4189373;28;20037;-69
2023/10/10 00:16:37;;;;;;;18.52;7.47;;;;;;;15.56;70.21;101121.72;4190349;28;20045;-69
2023/10/10 00:18:43;;;;;;;14.30;6.30;;;;;;;15.54;70.18;101124.34;4187298;28;20052;-69
2023/10/10 00:21:04;;;;;;;13.40;7.07;;;;;;;15.52;70.49;101120.81;4187163;28;20090;-69
2023/10/10 00:23:10;;;;;;;15.30;7.20;;;;;;;15.51;70.26;101124.31;4182053;28;20029;-69
2023/10/10 00:25:23;;;;;;;13.38;6.43;;;;;;;15.48;69.97;101124.31;4189099;28;20485;-69
2023/10/10 00:27:30;;;;;;;14.05;6.47;;;;;;;15.45;69.96;101126.88;4189390;28;20401;-69
2023/10/10 00:29:33;;;;;;;12.88;7.22;;;;;;;15.46;69.96;101126.94;4190599;28;20127;-69
2023/10/10 00:31:43;;;;;;;15.95;7.55;;;;;;;15.48;69.48;101127.78;4185930;28;20430;-69
2023/10/10 00:33:47;;;;;;;14.93;6.97;;;;;;;15.47;69.41;101122.56;4186100;28;20037;-69
2023/10/10 00:35:50;;;;;;;17.58;7.32;;;;;;;15.45;69.95;101122.53;4186788;28;20067;-69
2023/10/10 00:37:52;;;;;;;15.43;7.15;;;;;;;15.45;69.59;101124.28;4186432;28;20033;-69
2023/10/10 00:39:56;;;;;;;16.88;6.85;;;;;;;15.44;69.14;101125.16;4185451;28;20504;-69
2023/10/10 00:42:05;;;;;;;13.68;6.88;;;;;;;15.43;69.60;101124.25;4182864;28;20071;-69
2023/10/10 00:44:11;;;;;;;11.20;6.40;;;;;;;15.40;69.87;101129.50;4186390;28;20132;-69
2023/10/10 00:46:14;;;;;;;15.52;7.80;;;;;;;15.40;69.90;101126.00;4183283;28;20067;-69
2023/10/10 00:48:21;;;;;;;16.20;7.97;;;;;;;15.38;69.83;101119.91;4185560;28;20040;-69
2023/10/10 00:50:25;;;;;;;14.70;7.25;;;;;;;15.35;69.59;101123.38;4186906;28;20029;-69
2023/10/10 00:52:30;;;;;;;15.52;8.32;;;;;;;15.27;70.16;101112.81;4186945;28;20044;-69
2023/10/10 00:54:40;;;;;;;18.88;7.07;;;;;;;15.27;69.86;101110.22;4186464;28;20037;-69
2023/10/10 00:56:44;;;;;;;12.68;7.10;;;;;;;15.27;70.52;101111.97;4180475;28;20045;-69
2023/10/10 00:58:48;;;;;;;12.15;6.93;;;;;;;15.28;70.39;101108.47;4187182;28;20028;-69
2023/10/10 01:00:54;;;;;;;11.48;6.90;;;;;;;15.25;70.84;101117.19;4204739;28;20118;-69
2023/10/10 01:03:06;;;;;;;16.45;7.95;;;;;;;15.24;70.88;101115.44;4188020;28;20071;-69
2023/10/10 01:05:13;;;;;;;12.85;7.25;;;;;;;15.25;71.20;101111.09;4188578;28;20037;-69
2023/10/10 01:07:19;;;;;;;15.80;6.93;;;;;;;15.23;71.94;101113.72;4187072;28;20048;-69
2023/10/10 01:09:32;;;;;;;14.05;7.55;;;;;;;15.24;71.94;101114.56;4187418;28;20047;-69
2023/10/10 01:11:35;;;;;;;13.43;7.10;;;;;;;15.22;72.24;101109.31;4190244;28;20036;-69
2023/10/10 01:13:40;;;;;;;12.82;7.15;;;;;;;15.18;72.53;101116.28;4208589;28;20074;-69
2023/10/10 01:15:44;;;;;;;;;;;;;;;15.04;72.98;101111.81;4192281;28;20055;-69
2023/10/10 01:17:47;;;;;;;15.05;6.93;;;;;;;15.06;72.39;101104.88;4188260;28;20382;-69
2023/10/10 01:19:50;;;;;;;13.98;7.18;;;;;;;15.06;73.09;101110.97;4188747;28;20044;-69
2023/10/10 01:21:57;;;;;;;12.70;7.10;;;;;;;15.08;72.88;101105.75;4190120;28;20051;-69
2023/10/10 01:24:11;;;;;;;12.95;7.15;;;;;;;15.08;73.12;101106.63;4188240;28;20048;-69
2023/10/10 01:26:14;;;;;;;15.23;8.30;;;;;;;15.07;73.20;101104.88;4186138;28;20048;-69
2023/10/10 01:28:27;;;;;;;16.30;7.28;;;;;;;15.09;73.06;101100.50;4189570;28;20052;-69
2023/10/10 01:30:56;;;;;;;16.83;8.27;;;;;;;15.08;72.56;101103.13;4188592;28;20409;-69
2023/10/10 01:33:01;;;;;;;15.15;7.70;;;;;;;15.03;72.76;101103.09;4188430;28;20071;-69
2023/10/10 01:35:16;;;;;;;15.25;7.63;;;;;;;15.02;73.23;101098.72;4191094;28;20043;-69
2023/10/10 01:37:22;;;;;;;17.23;8.30;;;;;;;15.01;73.17;101095.25;4170029;28;20029;-69
2023/10/10 01:39:36;;;;;;;17.08;8.18;;;;;;;14.99;73.03;101099.56;4189714;28;20327;-69
2023/10/10 01:41:41;;;;;;;15.20;8.73;;;;;;;14.92;73.88;101104.78;4186068;28;20399;-69
2023/10/10 01:43:46;;;;;;;18.10;8.95;;;;;;;14.92;74.07;101102.16;4188522;28;20040;-69
2023/10/10 01:46:08;;;;;;;14.18;7.95;;;;;;;14.91;73.08;101101.28;4190448;28;20072;-69
2023/10/10 01:48:11;;;;;;;14.93;8.00;;;;;;;14.87;72.97;101094.28;4189701;28;20086;-69
2023/10/10 01:50:14;;;;;;;14.60;8.52;;;;;;;14.88;73.09;101096.03;4189361;28;20032;-69
2023/10/10 01:52:20;;;;;;;16.83;8.23;;;;;;;14.87;73.21;101094.28;4191473;28;20470;-69
2023/10/10 01:54:34;;;;;;;16.27;8.30;;;;;;;14.87;73.62;101099.50;4188011;28;20047;-69
2023/10/10 01:56:38;;;;;;;15.98;9.10;;;;;;;14.85;73.92;101098.63;4187278;28;20033;-69
2023/10/10 01:58:41;;;;;;;17.45;9.52;;;;;;;14.86;73.48;101097.75;4189684;28;20123;-70
2023/10/10 02:00:46;;;;;;;14.13;7.63;;;;;;;14.87;73.13;101099.50;4185202;28;20036;-70
2023/10/10 02:02:50;;;;;;;21.15;10.98;;;;;;;14.87;72.99;101098.66;4188460;28;20044;-70
2023/10/10 02:04:56;;;;;;;14.43;8.55;;;;;;;14.86;73.81;101092.50;4188033;28;20095;-70
2023/10/10 02:07:04;;;;;;;11.35;7.85;;;;;;;14.86;73.45;101097.75;4186150;28;20041;-69
2023/10/10 02:09:26;;;;;;;14.35;8.93;;;;;;;14.82;73.78;101090.72;4188400;28;20503;-69
2023/10/10 02:11:31;;;;;;;18.27;9.45;;;;;;;14.80;73.77;101095.09;4188531;28;20367;-70
2023/10/10 02:13:39;;;;;;;16.75;8.35;;;;;;;14.82;73.24;101095.97;4189645;28;20491;-70
2023/10/10 02:15:42;;;;;;;15.85;8.63;;;;;;;14.80;73.16;101084.63;4189524;28;20128;-69
2023/10/10 02:17:50;;;;;;;19.42;9.50;;;;;;;14.80;73.44;101087.25;4192651;28;20060;-70
2023/10/10 02:19:54;;;;;;;14.75;8.45;;;;;;;14.78;73.80;101086.38;4186761;28;20033;-70
2023/10/10 02:22:13;;;;;;;17.42;8.60;;;;;;;14.78;73.20;101091.59;4186836;28;20052;-69
2023/10/10 02:24:39;;;;;;;17.23;8.63;;;;;;;14.73;73.49;101085.44;4189125;28;21216;-70
2023/10/10 02:26:44;;;;;;;14.20;7.82;;;;;;;14.71;73.92;101090.66;4186712;28;20068;-70
2023/10/10 02:28:49;;;;;;;19.05;9.07;;;;;;;14.68;74.04;101095.88;4213262;28;20053;-70
2023/10/10 02:30:53;;;;;;;14.75;8.18;;;;;;;14.65;73.82;101094.13;4188208;28;20045;-69
2023/10/10 02:32:57;;;;;;;14.35;9.18;;;;;;;14.63;74.67;101090.63;4188451;28;20043;-69
2023/10/10 02:35:16;;;;;;;15.18;8.93;;;;;;;14.61;74.14;101087.09;4190678;28;20040;-69
2023/10/10 02:37:41;;;;;;;15.23;8.95;;;;;;;14.62;74.46;101094.09;4184615;28;20315;-70
2023/10/10 02:39:56;;;;;;;12.60;7.50;;;;;;;14.61;74.11;101094.94;4184757;28;20077;-69
2023/10/10 02:42:03;;;;;;;16.23;7.88;;;;;;;14.61;74.31;101094.06;4204401;28;20064;-69
2023/10/10 02:44:09;;;;;;;18.30;9.30;;;;;;;14.60;74.40;101089.66;4205500;28;20032;-70
2023/10/10 02:46:17;;;;;;;16.80;8.90;;;;;;;14.59;74.76;101091.44;4182495;28;20124;-69
2023/10/10 02:48:23;;;;;;;14.07;7.80;;;;;;;14.59;73.94;101091.44;4189199;28;20131;-69
2023/10/10 02:50:41;;;;;;;17.17;9.43;;;;;;;14.54;73.95;101090.50;4188059;28;20035;-69
2023/10/10 02:52:46;;;;;;;12.43;7.85;;;;;;;14.47;74.77;101093.94;4179792;28;20043;-69
2023/10/10 02:54:54;;;;;;;13.57;7.70;;;;;;;14.44;74.75;101089.56;4185161;28;20040;-69
2023/10/10 02:57:26;;;;;;;15.45;8.77;;;;;;;14.47;74.96;101099.16;4187540;28;20037;-70
2023/10/10 02:59:23;;;;;;;17.13;8.30;;;;;;;14.44;74.48;101094.81;4184691;28;20072;-70
2023/10/10 03:01:50;;;;;;;17.15;8.93;;;;;;;14.45;74.72;101098.28;4187282;28;20033;-70
2023/10/10 03:03:55;;;;;;;15.13;8.20;;;;;;;14.38;74.59;101091.25;4212647;28;20119;-69
2023/10/10 03:06:06;;;;;;;20.13;9.23;;;;;;;14.35;75.38;101088.59;4204032;28;20114;-69
2023/10/10 03:08:13;;;;;;;16.98;9.18;;;;;;;14.36;75.27;101086.00;4187774;28;20033;-69
2023/10/10 03:10:22;;;;;;;16.20;9.38;;;;;;;14.39;75.32;101095.63;4184011;28;20036;-69
2023/10/10 03:12:29;;;;;;;14.77;9.30;;;;;;;14.43;74.83;101100.03;4186408;28;20609;-69
2023/10/10 03:14:33;;;;;;;19.10;9.07;;;;;;;14.44;74.87;101097.41;4189721;28;20040;-69
2023/10/10 03:16:44;;;;;;;18.55;9.52;;;;;;;14.42;74.21;101103.50;4188501;28;20033;-69
2023/10/10 03:18:53;;;;;;;18.38;8.95;;;;;;;14.37;74.74;101098.22;4186181;28;20514;-69
2023/10/10 03:21:24;;;;;;;17.58;8.60;;;;;;;14.40;74.98;101094.75;4186267;28;20091;-69
2023/10/10 03:23:33;;;;;;;16.50;10.18;;;;;;;14.37;74.66;101092.09;4187251;28;20032;-69
2023/10/10 03:25:46;;;;;;;20.17;9.35;;;;;;;14.39;74.54;101099.09;4186070;28;20048;-69
2023/10/10 03:27:53;;;;;;;18.75;9.88;;;;;;;14.36;75.02;101092.97;4187644;28;20037;-69
2023/10/10 03:30:16;;;;;;;20.33;11.45;;;;;;;14.35;75.14;101089.47;4186676;28;20037;-70
2023/10/10 03:32:21;;;;;;;16.55;10.77;;;;;;;14.34;74.41;101097.31;4212274;28;20493;-69
2023/10/10 03:34:42;;;;;;;17.63;9.80;;;;;;;14.29;75.15;101100.78;4185410;28;20037;-69
2023/10/10 03:36:46;;;;;;;18.35;10.75;;;;;;;14.27;75.00;101094.63;4186474;28;20036;-69
2023/10/10 03:39:16;;;;;;;18.15;11.02;;;;;;;14.24;74.83;101099.84;4187235;28;20033;-69
2023/10/10 05:23:29;;;;;;;18.33;10.10;;;;;;;14.18;75.48;101097.19;4190847;28;20035;-69
2023/10/10 05:23:55;;;;;;;21.88;9.32;;;;;;;13.70;75.61;101103.63;4190655;28;20029;-71
2023/10/10 05:25:59;;;;;;;23.60;11.07;;;;;;;13.70;75.54;101095.81;4192991;28;20415;-71
2023/10/10 05:28:03;;;;;;;20.33;9.27;;;;;;;13.71;75.84;101092.31;4182141;28;20044;-71
2023/10/10 05:30:07;;;;;;;20.30;9.57;;;;;;;13.73;75.86;101093.22;4181819;28;20036;-71
2023/10/10 05:32:11;;;;;;;14.90;8.00;;;;;;;13.69;76.38;101094.03;4180983;28;20052;-71
2023/10/10 05:34:15;;;;;;;19.30;8.70;;;;;;;13.69;76.13;101107.09;4175849;28;20029;-71
2023/10/10 05:36:19;;;;;;;16.58;8.20;;;;;;;13.67;76.38;101104.47;4180883;28;20041;-71
2023/10/10 05:38:21;;;;;;;21.05;8.65;;;;;;;13.63;76.08;101102.69;4181446;28;20063;-71
2023/10/10 05:40:28;;;;;;;18.35;9.15;;;;;;;13.65;76.09;101107.91;4181418;28;20033;-71
2023/10/10 05:42:35;;;;;;;19.38;9.95;;;;;;;13.65;76.92;101105.31;4180844;28;20041;-71
2023/10/10 05:44:38;;;;;;;18.00;8.57;;;;;;;13.63;76.43;101107.91;4181000;28;20443;-71
2023/10/10 05:46:44;;;;;;;23.52;9.25;;;;;;;13.64;76.92;101108.78;4181515;28;20036;-71
2023/10/10 05:48:51;;;;;;;21.80;9.95;;;;;;;13.61;76.68;101109.63;4180948;28;20068;-71
2023/10/10 05:50:53;;;;;;;14.10;7.68;;;;;;;13.59;76.81;101106.09;4180187;28;20040;-70
2023/10/10 05:52:58;;;;;;;18.40;9.05;;;;;;;13.59;76.96;101109.63;4179539;28;20039;-70
2023/10/10 05:55:01;;;;;;;24.85;12.23;;;;;;;13.71;78.83;101111.50;4179642;28;20104;-67
2023/10/10 05:57:05;;;;;;;33.78;12.35;;;;;;;14.10;80.60;101111.91;4179349;28;20108;-66
2023/10/10 05:59:09;;;;;;;18.10;9.02;;;;;;;14.42;79.05;101104.34;4181254;28;20095;-66
2023/10/10 06:01:14;;;;;;;21.33;8.48;;;;;;;14.63;77.77;101111.56;4180474;28;20168;-65
2023/10/10 06:03:17;;;;;;;18.90;8.55;;;;;;;14.77;76.81;101109.03;4181404;28;20060;-65
2023/10/10 06:05:21;;;;;;;18.17;8.05;;;;;;;14.86;75.26;101112.59;4180631;28;20120;-65
2023/10/10 06:07:24;;;;;;;16.67;7.00;;;;;;;14.90;74.86;101114.38;4181026;28;20050;-65
2023/10/10 06:09:33;;;;;;;16.80;7.13;;;;;;;14.94;74.57;101117.00;4177346;28;20151;-66
2023/10/10 06:11:36;;;;;;;15.52;6.93;;;;;;;14.99;74.73;101125.75;4177356;28;20135;-65
2023/10/10 06:13:43;;;;;;;19.45;7.63;;;;;;;15.01;74.11;101123.19;4185671;28;20040;-72
2023/10/10 06:15:50;;;;;;;19.75;8.45;;;;;;;14.85;73.40;101132.66;4173816;28;20138;-72
2023/10/10 06:17:57;;;;;;;20.60;7.82;;;;;;;14.66;74.10;101132.50;4181983;28;20041;-71
2023/10/10 06:19:59;;;;;;;15.25;7.63;;;;;;;14.52;74.14;101136.72;4182253;28;20033;-71
2023/10/10 06:22:08;;;;;;;20.48;8.82;;;;;;;14.45;74.30;101134.91;4184733;28;20092;-71
2023/10/10 06:24:12;;;;;;;16.15;8.07;;;;;;;14.38;74.51;101130.47;4184631;28;20093;-71
2023/10/10 06:26:21;;;;;;;18.20;7.80;;;;;;;14.32;75.21;101131.28;4191079;28;20504;-71
2023/10/10 06:28:26;;;;;;;17.05;7.68;;;;;;;14.29;75.07;101131.28;4186992;28;20064;-71
2023/10/10 06:30:30;;;;;;;15.35;7.45;;;;;;;14.26;75.26;101141.69;4192681;28;20410;-72
2023/10/10 06:32:34;;;;;;;15.07;7.03;;;;;;;14.25;75.34;101130.38;4187750;28;20256;-71
2023/10/10 06:34:38;;;;;;;22.17;9.07;;;;;;;14.26;75.89;101126.88;4187730;28;20136;-71
2023/10/10 06:36:47;;;;;;;17.60;7.47;;;;;;;14.28;75.82;101129.50;4190123;28;20043;-71
2023/10/10 06:38:59;;;;;;;17.95;8.57;;;;;;;14.28;75.68;101130.41;4184354;28;20060;-71
2023/10/10 06:41:11;;;;;;;20.15;9.45;;;;;;;14.30;76.20;101136.50;4181972;28;20036;-71
2023/10/10 06:43:15;;;;;;;19.70;8.15;;;;;;;14.30;77.08;101136.50;4188961;28;20040;-71
2023/10/10 06:45:22;;;;;;;16.30;7.20;;;;;;;14.33;76.79;101133.06;4185465;28;20495;-71
2023/10/10 06:47:28;;;;;;;15.60;8.25;;;;;;;14.32;77.20;101137.41;4182710;28;20129;-71
2023/10/10 06:49:43;;;;;;;19.25;8.88;;;;;;;14.31;77.54;101140.88;4183256;28;20040;-71
2023/10/10 06:51:46;;;;;;;16.10;7.00;;;;;;;14.33;77.13;101143.53;4182661;28;20443;-72
2023/10/10 06:53:54;;;;;;;15.30;7.35;;;;;;;14.38;76.94;101144.41;4182124;28;20079;-71
2023/10/10 06:56:14;;;;;;;15.82;7.43;;;;;;;14.44;77.08;101147.13;4164980;28;20088;-71
2023/10/10 06:58:18;;;;;;;20.40;7.97;;;;;;;14.48;76.33;101146.28;4179407;28;20049;-71
2023/10/10 07:00:20;;;;;;;20.35;7.30;;;;;;;14.53;76.59;101151.56;4180666;28;20135;-71
2023/10/10 07:02:27;;;;;;;18.65;7.13;;;;;;;14.59;76.91;101151.59;4179209;28;20052;-71
2023/10/10 07:04:35;;;;;;;21.83;7.53;;;;;;;14.61;76.89;101162.97;4180550;28;20033;-71
2023/10/10 07:06:43;;;;;;;22.02;7.68;;;;;;;14.64;76.22;101147.31;4180736;28;20025;-71
2023/10/10 07:08:49;;;;;;;20.35;7.75;;;;;;;14.67;77.11;101149.09;4179335;28;20039;-72
2023/10/10 07:10:54;;;;;;;18.25;7.95;;;;;;;14.73;76.50;101151.75;4180169;28;20487;-71
2023/10/10 07:12:57;;;;;;;18.60;6.70;;;;;;;14.71;76.45;101144.75;4179110;28;20037;-71
2023/10/10 07:15:06;;;;;;;15.93;7.43;;;;;;;14.73;77.84;101153.50;4180500;28;20102;-71
2023/10/10 07:17:11;;;;;;;19.27;7.25;;;;;;;14.77;76.69;101150.03;4179848;28;20055;-72
2023/10/10 07:19:22;;;;;;;18.27;7.32;;;;;;;14.77;76.67;101144.81;4180592;28;20061;-71
2023/10/10 07:21:30;;;;;;;16.27;7.95;;;;;;;14.84;76.61;101142.25;4177515;28;20519;-71
2023/10/10 07:23:37;;;;;;;14.23;6.82;;;;;;;14.86;76.67;101147.50;4180499;28;20067;-72
2023/10/10 07:25:44;;;;;;;16.30;8.32;;;;;;;14.83;76.02;101144.84;4180662;28;20064;-71
2023/10/10 07:27:47;;;;;;;16.95;7.22;;;;;;;14.87;76.04;101149.25;4179465;28;20087;-71
2023/10/10 07:29:58;;;;;;;20.65;7.88;;;;;;;14.97;75.79;101150.19;4180629;28;20410;-71
2023/10/10 07:32:15;;;;;;;22.67;9.80;;;;;;;14.90;75.82;101151.03;4180234;28;20037;-71
2023/10/10 07:34:34;;;;;;;16.27;7.40;;;;;;;14.82;75.50;101148.31;4181646;28;20045;-72
2023/10/10 07:36:38;;;;;;;19.73;8.10;;;;;;;14.83;76.65;101150.09;4188091;28;20032;-72
2023/10/10 07:38:41;;;;;;;16.65;8.07;;;;;;;14.84;76.24;101155.34;4166207;28;20136;-72
2023/10/10 07:40:44;;;;;;;22.25;8.38;;;;;;;14.98;75.19;101150.22;4163251;28;20056;-71
2023/10/10 07:42:49;;;;;;;15.60;7.47;;;;;;;14.91;75.58;101156.28;4193802;28;20072;-71
2023/10/10 07:44:54;;;;;;;19.25;8.15;;;;;;;14.96;76.11;101151.94;4191116;28;20044;-71
2023/10/10 07:47:19;;;;;;;16.60;7.68;;;;;;;15.02;76.13;101156.34;4187094;28;20047;-71
2023/10/10 07:49:27;;;;;;;;;;;;;;;14.98;75.36;101152.84;4187485;28;20033;-71
2023/10/10 07:51:29;;;;;;;19.95;8.07;;;;;;;14.96;75.38;101151.06;4183865;28;19947;-71
2023/10/10 07:53:41;;;;;;;19.50;9.20;;;;;;;15.00;75.10;101145.84;4190724;28;20037;-71
2023/10/10 07:56:00;;;;;;;26.23;8.05;;;;;;;15.01;75.84;101145.00;4181475;28;20049;-71
2023/10/10 07:58:06;;;;;;;16.67;7.47;;;;;;;15.08;74.91;101145.88;4186335;28;20040;-71
2023/10/10 08:00:17;;;;;;;19.60;7.75;;;;;;;15.13;74.82;101154.66;4181856;28;20124;-71
2023/10/10 08:02:31;;;;;;;21.52;8.02;;;;;;;15.04;74.85;101149.38;4184898;28;20383;-71
2023/10/10 08:04:37;;;;;;;24.60;8.70;;;;;;;15.03;74.94;101152.84;4182352;28;20066;-71
2023/10/10 08:06:44;;;;;;;18.77;8.52;;;;;;;15.08;74.98;101150.25;4184275;28;20426;-71
2023/10/10 08:08:56;;;;;;;19.90;8.27;;;;;;;15.14;74.49;101153.81;4187065;28;20040;-71
2023/10/10 08:11:05;;;;;;;21.35;7.95;;;;;;;15.23;74.31;101146.88;4182298;28;20044;-71
2023/10/10 08:13:10;;;;;;;16.17;7.25;;;;;;;15.25;74.92;101145.16;4185377;28;20124;-71
2023/10/10 08:15:25;;;;;;;;;;;;;;;15.25;74.39;101146.00;4181333;28;20033;-71
2023/10/10 08:17:29;;;;;;;24.60;8.85;;;;;;;15.29;74.41;101144.31;4211831;28;20014;-70
2023/10/10 08:19:34;;;;;;;19.33;7.60;;;;;;;15.38;74.58;101143.47;4180949;28;20044;-71
2023/10/10 08:21:48;;;;;;;19.30;9.13;;;;;;;15.51;74.11;101142.66;4191124;28;20127;-72
2023/10/10 08:23:56;;;;;;;20.40;8.27;;;;;;;15.61;73.83;101149.69;4192447;28;20037;-71
2023/10/10 08:25:59;;;;;;;20.95;8.77;;;;;;;15.70;73.69;101144.50;4196715;28;20120;-71
2023/10/10 08:28:02;;;;;;;15.77;7.90;;;;;;;15.82;73.35;101145.44;4179616;28;20044;-71
2023/10/10 08:30:13;;;;;;;11.23;6.82;;;;;;;15.76;73.19;101151.50;4194740;28;20083;-72
2023/10/10 08:32:16;;;;;;;19.88;7.97;;;;;;;15.82;72.40;101143.69;4202360;28;20048;-72
2023/10/10 08:34:20;;;;;;;19.65;9.02;;;;;;;15.84;72.61;101143.69;4197299;28;20044;-72
2023/10/10 08:36:26;;;;;;;18.33;7.97;;;;;;;15.86;71.96;101145.47;4181278;28;20041;-72
2023/10/10 08:38:31;;;;;;;19.15;8.48;;;;;;;15.92;71.89;101141.97;4184820;28;20033;-72
2023/10/10 08:40:36;;;;;;;20.75;8.80;;;;;;;16.01;71.84;101146.38;4184921;28;20555;-72
2023/10/10 08:42:39;;;;;;;21.58;8.13;;;;;;;16.06;71.22;101144.63;4168371;28;20029;-72
2023/10/10 08:44:42;;;;;;;20.27;7.75;;;;;;;16.13;70.37;101146.41;4189528;28;20056;-72
2023/10/10 08:46:47;;;;;;;18.95;7.50;;;;;;;16.18;69.72;101146.44;4183232;28;20033;-72
2023/10/10 08:48:50;;;;;;;23.17;8.32;;;;;;;16.14;69.92;101147.28;4184326;28;20135;-72
2023/10/10 08:50:54;;;;;;;17.92;7.32;;;;;;;16.13;70.31;101156.03;4180212;28;20033;-72
2023/10/10 08:52:59;;;;;;;17.48;7.32;;;;;;;16.19;70.06;101156.03;4185219;28;20486;-72
2023/10/10 08:55:04;;;;;;;17.55;8.38;;;;;;;16.27;69.28;101159.56;4181113;28;20037;-71
2023/10/10 08:57:10;;;;;;;16.92;7.57;;;;;;;16.28;69.11;101156.06;4168093;28;20529;-72
2023/10/10 08:59:17;;;;;;;15.27;7.40;;;;;;;16.29;68.96;101159.56;4187606;28;20040;-72
2023/10/10 09:01:22;;;;;;;17.90;7.85;;;;;;;16.42;68.23;101158.69;4175250;28;20458;-71
2023/10/10 09:03:26;;;;;;;17.60;9.00;;;;;;;16.43;68.61;101156.94;4178398;28;20041;-72
2023/10/10 09:05:29;;;;;;;16.13;7.57;;;;;;;16.44;68.47;101156.06;4183342;28;20033;-72
2023/10/10 09:07:34;;;;;;;17.48;7.28;;;;;;;16.46;68.31;101155.22;4187256;28;20399;-72
2023/10/10 09:09:39;;;;;;;;;;;;;;;16.46;68.60;101156.97;4186506;28;20102;-72
2023/10/10 09:11:44;;;;;;;;;;;;;;;16.49;68.69;101160.47;4176208;28;19974;-72
2023/10/10 09:13:49;;;;;;;20.77;8.83;;;;;;;16.62;68.01;101153.47;4187397;28;19925;-72
2023/10/10 09:15:57;;;;;;;15.38;6.30;;;;;;;16.68;67.88;101155.22;4184867;28;20064;-72
2023/10/10 09:18:14;;;;;;;20.98;8.52;;;;;;;16.90;67.53;101145.63;4182328;28;20063;-71
2023/10/10 09:20:28;;;;;;;18.00;8.20;;;;;;;16.96;66.92;101142.97;4172438;28;20049;-72
2023/10/10 09:22:34;;;;;;;15.82;7.07;;;;;;;16.94;67.43;101152.63;4187146;28;20069;-72
2023/10/10 09:24:38;;;;;;;18.35;7.82;;;;;;;17.01;67.10;101146.50;4196549;28;20540;-72
2023/10/10 09:26:42;;;;;;;13.05;6.90;;;;;;;17.10;67.36;101142.97;4179846;28;20045;-72
2023/10/10 09:28:49;;;;;;;12.02;5.90;;;;;;;17.21;67.68;101142.94;4182909;28;20047;-72
2023/10/10 09:30:58;;;;;;;18.83;7.13;;;;;;;17.28;66.97;101152.56;4187060;28;20071;-72
2023/10/10 09:33:13;;;;;;;15.55;6.97;;;;;;;17.36;66.50;101148.16;4178813;28;20399;-72
2023/10/10 09:35:20;;;;;;;18.77;7.07;;;;;;;17.47;66.41;101148.13;4180489;28;20044;-72
2023/10/10 09:37:30;;;;;;;14.20;7.45;;;;;;;17.60;65.76;101138.44;4182846;28;20458;-71
2023/10/10 09:39:36;;;;;;;15.43;6.32;;;;;;;17.69;66.07;101135.78;4178955;28;20040;-72
2023/10/10 09:42:00;;;;;;;19.75;7.68;;;;;;;17.83;65.78;101129.56;4186688;28;20498;-65
2023/10/10 09:46:58;;;;;;;18.15;7.18;;;;;;;17.99;64.61;101139.19;4186049;28;20033;-64
2023/10/10 09:49:28;;;;;;;16.58;7.63;;;;;;;18.08;62.84;101136.47;4188556;28;20040;-64
2023/10/10 09:53:49;;;;;;;12.93;6.60;;;;;;;18.08;63.82;101136.47;4185808;28;20471;-64
2023/10/10 09:56:01;;;;;;;13.50;6.60;;;;;;;18.14;64.09;101135.56;4180792;28;20037;-64
2023/10/10 09:58:16;;;;;;;14.65;6.82;;;;;;;18.18;63.46;101134.69;4183998;28;20041;-64
2023/10/10 10:00:30;;;;;;;;;;;;;;;18.26;63.42;101132.84;4183435;28;20041;-65
2023/10/10 10:02:43;;;;;;;13.65;6.63;;;;;;;18.21;63.07;101139.91;4187545;28;20003;-66
2023/10/10 10:04:47;;;;;;;37.22;22.25;;;;;;;18.25;64.03;101140.75;4186291;28;20119;-66
2023/10/10 10:07:13;;;;;;;21.52;14.60;;;;;;;18.30;63.61;101142.47;4184752;28;20410;-65
2023/10/10 10:09:45;;;;;;;62.25;41.75;;;;;;;18.37;64.16;101139.78;4181263;28;20045;-65
2023/10/10 10:12:03;;;;;;;24.65;13.40;;;;;;;18.44;63.05;101137.13;4181645;28;20143;-64
2023/10/10 10:14:17;;;;;;;25.90;13.15;;;;;;;18.54;63.36;101140.53;4182578;28;20033;-65
2023/10/10 10:16:37;;;;;;;17.30;7.95;;;;;;;18.65;62.22;101138.72;4189860;28;20053;-64
2023/10/10 10:18:46;;;;;;;19.02;9.82;;;;;;;18.76;62.60;101140.38;4183301;28;20040;-62
2023/10/10 10:21:05;;;;;;;20.65;9.52;;;;;;;18.82;62.57;101135.94;4188631;28;20041;-62
2023/10/10 10:23:12;;;;;;;13.57;7.18;;;;;;;18.88;62.14;101131.50;4188721;28;20051;-62
2023/10/10 10:25:22;;;;;;;12.73;6.13;;;;;;;19.00;61.44;101139.31;4187864;28;20068;-62
2023/10/10 10:27:31;;;;;;;17.00;7.47;;;;;;;19.15;59.85;101131.22;4192054;28;20130;-62
2023/10/10 10:29:38;;;;;;;16.35;7.22;;;;;;;19.14;60.72;101134.78;4186400;28;20043;-62
2023/10/10 10:31:51;;;;;;;18.42;6.85;;;;;;;19.16;60.48;101127.72;4179141;28;20040;-62
2023/10/10 10:34:06;;;;;;;15.23;6.72;;;;;;;19.14;60.63;101133.88;4199014;28;20380;-62
2023/10/10 10:36:15;;;;;;;15.27;6.10;;;;;;;19.14;60.40;101125.97;4192576;28;20038;-62
2023/10/10 10:38:22;;;;;;;17.05;7.35;;;;;;;19.23;60.62;101125.91;4170464;28;20050;-62
2023/10/10 10:40:41;;;;;;;15.95;7.28;;;;;;;19.30;59.82;101124.06;4178287;28;20033;-63
2023/10/10 10:42:47;;;;;;;13.38;5.88;;;;;;;19.33;60.57;101119.63;4178454;28;20033;-63
2023/10/10 10:44:54;;;;;;;17.05;8.70;;;;;;;19.36;60.59;101116.06;4185253;28;20400;-63
2023/10/10 10:46:59;;;;;;;14.27;7.25;;;;;;;19.45;59.60;101120.34;4181914;28;20106;-62
2023/10/10 10:49:06;;;;;;;;;;;;;;;19.52;59.27;101106.22;4185120;28;20051;-62
2023/10/10 10:51:23;;;;;;;10.98;6.50;;;;;;;19.44;59.36;101108.94;4182137;28;19924;-63
2023/10/10 10:53:38;;;;;;;13.50;5.93;;;;;;;19.55;60.06;101111.44;4182878;28;20041;-63
2023/10/10 10:55:43;;;;;;;15.27;7.10;;;;;;;19.73;58.66;101110.34;4180724;28;20406;-63
2023/10/10 10:57:46;;;;;;;13.95;7.15;;;;;;;19.82;58.73;101110.25;4189210;28;20039;-62
2023/10/10 10:59:55;;;;;;;15.23;6.78;;;;;;;19.94;58.55;101103.06;4184438;28;20343;-63
2023/10/10 11:01:59;;;;;;;12.30;5.85;;;;;;;19.91;58.79;101103.09;4180227;28;20116;-63
2023/10/10 11:04:05;;;;;;;19.27;7.47;;;;;;;19.94;58.96;101113.63;4186508;28;20483;-63
2023/10/10 11:06:09;;;;;;;18.70;7.55;;;;;;;20.07;58.90;101098.47;4184122;28;20039;-62
2023/10/10 11:08:14;;;;;;;12.52;5.82;;;;;;;20.09;58.43;101094.91;4184114;28;20087;-61
2023/10/10 11:10:35;;;;;;;;;;;;;;;20.03;58.46;101098.53;4180308;28;20044;-62
2023/10/10 11:12:38;;;;;;;15.93;6.45;;;;;;;20.18;58.05;101093.88;4180924;28;20019;-63
2023/10/10 11:14:44;;;;;;;15.85;6.65;;;;;;;20.21;57.90;101092.09;4186631;28;20068;-63
2023/10/10 11:16:56;;;;;;;18.35;5.65;;;;;;;20.17;58.62;101095.66;4188252;28;20083;-63
2023/10/10 11:19:12;;;;;;;15.80;6.90;;;;;;;20.10;57.84;101091.38;4191589;28;20086;-63
2023/10/10 11:21:27;;;;;;;19.13;6.53;;;;;;;20.22;58.05;101090.31;4194346;28;20048;-63
2023/10/10 11:23:41;;;;;;;19.75;7.57;;;;;;;20.30;57.65;101087.56;4175111;28;20079;-63
2023/10/10 11:25:46;;;;;;;12.15;6.68;;;;;;;20.40;57.09;101086.53;4179698;28;20410;-63
2023/10/10 11:27:49;;;;;;;16.38;6.95;;;;;;;20.41;57.46;101088.25;4175598;28;20321;-63
2023/10/10 11:30:00;;;;;;;14.93;6.32;;;;;;;20.45;57.30;101079.38;4180956;28;20041;-63
2023/10/10 11:32:08;;;;;;;16.00;7.05;;;;;;;20.65;56.45;101078.19;4187564;28;20067;-63
2023/10/10 11:34:25;;;;;;;15.15;5.72;;;;;;;20.65;56.55;101075.53;4197089;28;20498;-62
2023/10/10 11:36:37;;;;;;;15.30;5.88;;;;;;;20.57;56.75;101073.00;4192187;28;20041;-62
2023/10/10 11:38:40;;;;;;;14.98;6.43;;;;;;;20.61;56.58;101073.84;4190566;28;20478;-62